createdAt,value
2023-04-17T00:01:32.279Z,32.38
2023-04-17T00:03:59.013Z,32.43
2023-04-17T00:06:26.048Z,34.38
2023-04-17T00:08:52.606Z,33.08
2023-04-17T00:11:19.149Z,36.47
2023-04-17T00:13:45.776Z,31.88
2023-04-17T00:16:12.480Z,37.07
2023-04-17T00:18:40.411Z,38.38
2023-04-17T00:21:07.011Z,37.70
2023-04-17T00:23:33.569Z,36.40
2023-04-17T00:26:00.193Z,39.30
2023-04-17T00:28:26.846Z,41.50
2023-04-17T00:30:53.474Z,46.63
2023-04-17T00:33:20.053Z,35.90
2023-04-17T00:35:48.087Z,43.25
2023-04-17T00:38:14.694Z,37.00
2023-04-17T00:40:41.302Z,40.27
2023-04-17T00:43:07.860Z,41.65
2023-04-17T00:45:34.713Z,41.47
2023-04-17T00:48:03.527Z,45.40
2023-04-17T00:50:30.816Z,41.75
2023-04-17T00:52:59.466Z,42.60
2023-04-17T00:55:26.940Z,45.85
2023-04-17T00:57:54.001Z,46.85
2023-04-17T01:00:20.698Z,40.95
2023-04-17T01:02:47.588Z,40.65
2023-04-17T01:05:14.548Z,40.40
2023-04-17T01:07:42.247Z,46.20
2023-04-17T01:10:10.873Z,43.33
2023-04-17T01:12:37.472Z,46.10
2023-04-17T01:15:04.636Z,46.70
2023-04-17T01:17:31.308Z,45.90
2023-04-17T01:19:58.133Z,47.70
2023-04-17T01:22:24.941Z,41.60
2023-04-17T01:24:52.923Z,46.53
2023-04-17T01:27:19.476Z,46.47
2023-04-17T01:29:46.137Z,39.43
2023-04-17T01:32:12.992Z,38.38
2023-04-17T01:34:39.551Z,41.60
2023-04-17T01:37:06.262Z,42.30
2023-04-17T01:39:32.807Z,42.15
2023-04-17T01:42:00.723Z,39.80
2023-04-17T01:44:27.529Z,37.55
2023-04-17T01:46:54.102Z,38.90
2023-04-17T01:49:20.668Z,37.47
2023-04-17T01:51:47.219Z,36.70
2023-04-17T01:54:13.790Z,35.00
2023-04-17T01:56:40.343Z,34.70
2023-04-17T01:59:08.635Z,30.52
2023-04-17T02:01:35.249Z,38.85
2023-04-17T02:04:01.944Z,34.55
2023-04-17T02:06:28.581Z,32.50
2023-04-17T02:08:55.197Z,35.85
2023-04-17T02:11:21.728Z,33.80
2023-04-17T02:13:48.466Z,37.10
2023-04-17T02:16:16.529Z,34.63
2023-04-17T02:18:43.275Z,31.70
2023-04-17T02:21:09.798Z,35.22
2023-04-17T02:23:36.532Z,35.53
2023-04-17T02:26:03.565Z,31.23
2023-04-17T02:28:30.248Z,34.33
2023-04-17T02:30:57.209Z,30.43
2023-04-17T02:33:25.270Z,33.92
2023-04-17T02:35:51.922Z,32.65
2023-04-17T02:38:19.735Z,36.33
2023-04-17T02:40:46.322Z,29.35
2023-04-17T02:43:12.882Z,29.50
2023-04-17T02:45:39.463Z,31.70
2023-04-17T02:48:06.838Z,35.08
2023-04-17T02:50:34.925Z,31.60
2023-04-17T02:53:01.488Z,32.85
2023-04-17T02:55:28.239Z,27.70
2023-04-17T02:57:54.818Z,31.30
2023-04-17T03:00:21.760Z,30.20
2023-04-17T03:02:48.461Z,28.98
2023-04-17T03:05:16.110Z,31.50
2023-04-17T03:07:44.094Z,29.40
2023-04-17T03:10:10.862Z,29.92
2023-04-17T03:12:37.571Z,30.98
2023-04-17T03:15:04.992Z,29.38
2023-04-17T03:17:32.305Z,28.70
2023-04-17T03:19:59.034Z,31.80
2023-04-17T03:22:25.596Z,32.42
2023-04-17T03:24:53.649Z,31.00
2023-04-17T03:27:20.166Z,35.08
2023-04-17T03:29:46.614Z,36.35
2023-04-17T03:32:13.238Z,29.43
2023-04-17T03:34:39.862Z,33.75
2023-04-17T03:37:06.378Z,27.70
2023-04-17T03:39:32.952Z,27.88
2023-04-17T03:42:01.065Z,27.58
2023-04-17T03:44:27.689Z,28.17
2023-04-17T03:46:54.276Z,35.80
2023-04-17T03:49:20.831Z,26.63
2023-04-17T03:51:47.409Z,25.65
2023-04-17T03:54:14.102Z,26.42
2023-04-17T03:56:40.639Z,28.73
2023-04-17T03:59:08.585Z,25.33
2023-04-17T04:01:35.171Z,28.42
2023-04-17T04:04:02.173Z,25.90
2023-04-17T04:06:28.823Z,24.33
2023-04-17T04:08:55.704Z,25.10
2023-04-17T04:11:22.365Z,26.88
2023-04-17T04:13:48.901Z,24.60
2023-04-17T04:16:17.041Z,25.20
2023-04-17T04:18:43.661Z,29.73
2023-04-17T04:21:10.216Z,29.67
2023-04-17T04:23:37.960Z,23.45
2023-04-17T04:26:04.719Z,31.20
2023-04-17T04:28:31.253Z,28.35
2023-04-17T04:30:57.941Z,27.40
2023-04-17T04:33:26.076Z,27.70
2023-04-17T04:35:52.642Z,30.30
2023-04-17T04:38:19.239Z,31.10
2023-04-17T04:40:45.773Z,30.75
2023-04-17T04:43:12.430Z,31.13
2023-04-17T04:45:39.037Z,29.63
2023-04-17T04:48:05.684Z,31.08
2023-04-17T04:50:33.730Z,31.70
2023-04-17T04:53:00.280Z,30.83
2023-04-17T04:55:26.871Z,30.05
2023-04-17T04:57:53.517Z,35.57
2023-04-17T05:00:20.525Z,31.42
2023-04-17T05:02:47.246Z,31.95
2023-04-17T05:05:14.202Z,33.55
2023-04-17T05:07:42.189Z,32.15
2023-04-17T05:10:09.623Z,28.83
2023-04-17T05:12:36.230Z,31.25
2023-04-17T05:15:02.985Z,33.60
2023-04-17T05:17:30.055Z,29.00
2023-04-17T05:19:56.714Z,33.13
2023-04-17T05:22:23.285Z,26.77
2023-04-17T05:24:51.187Z,29.08
2023-04-17T05:27:17.764Z,30.17
2023-04-17T05:29:44.585Z,29.23
2023-04-17T05:32:11.236Z,29.58
2023-04-17T05:34:37.894Z,27.80
2023-04-17T05:37:04.470Z,28.38
2023-04-17T05:39:31.124Z,30.17
2023-04-17T05:41:59.085Z,28.85
2023-04-17T05:44:25.734Z,27.88
2023-04-17T05:46:52.388Z,28.70
2023-04-17T05:49:18.878Z,27.50
2023-04-17T05:51:45.427Z,26.67
2023-04-17T05:54:12.100Z,24.90
2023-04-17T05:56:38.750Z,23.75
2023-04-17T05:59:06.711Z,27.10
2023-04-17T06:01:33.415Z,28.02
2023-04-17T06:04:01.586Z,25.88
2023-04-17T06:06:28.679Z,23.65
2023-04-17T06:08:55.226Z,25.30
2023-04-17T06:11:21.870Z,27.97
2023-04-17T06:13:48.482Z,26.65
2023-04-17T06:16:16.846Z,24.65
2023-04-17T06:18:43.440Z,27.45
2023-04-17T06:21:10.256Z,24.83
2023-04-17T06:23:37.172Z,25.20
2023-04-17T06:26:04.032Z,23.73
2023-04-17T06:28:30.595Z,25.42
2023-04-17T06:30:57.208Z,28.38
2023-04-17T06:33:26.800Z,22.17
2023-04-17T06:35:53.609Z,23.77
2023-04-17T06:38:20.257Z,22.83
2023-04-17T06:40:46.965Z,26.65
2023-04-17T06:43:15.608Z,22.38
2023-04-17T06:45:42.320Z,27.00
2023-04-17T06:48:09.007Z,24.47
2023-04-17T06:50:36.955Z,22.55
2023-04-17T06:53:03.588Z,24.17
2023-04-17T06:55:30.225Z,23.23
2023-04-17T06:57:56.864Z,25.33
2023-04-17T07:00:23.608Z,25.33
2023-04-17T07:02:50.671Z,25.58
2023-04-17T07:05:17.340Z,26.75
2023-04-17T07:07:45.331Z,23.98
2023-04-17T07:10:11.972Z,25.38
2023-04-17T07:12:38.673Z,24.67
2023-04-17T07:15:05.934Z,23.00
2023-04-17T07:17:32.957Z,25.85
2023-04-17T07:19:59.682Z,26.10
2023-04-17T07:22:27.400Z,24.38
2023-04-17T07:24:55.525Z,25.63
2023-04-17T07:27:22.160Z,26.13
2023-04-17T07:29:48.857Z,26.55
2023-04-17T07:32:15.479Z,23.48
2023-04-17T07:34:42.101Z,24.73
2023-04-17T07:37:08.715Z,28.97
2023-04-17T07:39:35.315Z,24.08
2023-04-17T07:42:03.633Z,24.73
2023-04-17T07:44:30.404Z,26.27
2023-04-17T07:46:57.101Z,26.10
2023-04-17T07:49:23.741Z,28.00
2023-04-17T07:51:50.826Z,24.42
2023-04-17T07:54:17.459Z,26.17
2023-04-17T07:56:44.366Z,27.77
2023-04-17T07:59:12.750Z,22.17
2023-04-17T08:01:39.616Z,23.90
2023-04-17T08:04:06.421Z,26.58
2023-04-17T08:06:33.172Z,22.67
2023-04-17T08:09:00.138Z,26.48
2023-04-17T08:11:26.741Z,22.50
2023-04-17T08:13:53.892Z,23.97
2023-04-17T08:16:21.901Z,23.63
2023-04-17T08:18:48.723Z,26.02
2023-04-17T08:21:15.382Z,25.33
2023-04-17T08:23:42.405Z,26.55
2023-04-17T08:26:09.009Z,22.43
2023-04-17T08:28:35.578Z,24.95
2023-04-17T08:31:02.394Z,22.45
2023-04-17T08:33:30.382Z,22.65
2023-04-17T08:35:57.075Z,22.90
2023-04-17T08:38:23.710Z,21.00
2023-04-17T08:40:53.007Z,19.77
2023-04-17T08:43:21.351Z,21.67
2023-04-17T08:45:49.395Z,20.77
2023-04-17T08:48:16.105Z,20.98
2023-04-17T08:50:47.837Z,17.43
2023-04-17T08:53:14.693Z,19.17
2023-04-17T08:55:41.316Z,19.60
2023-04-17T08:58:07.951Z,20.80
2023-04-17T09:00:35.998Z,22.08
2023-04-17T09:03:04.081Z,20.23
2023-04-17T09:05:31.937Z,20.48
2023-04-17T09:08:09.420Z,22.58
2023-04-17T09:10:37.207Z,22.30
2023-04-17T09:13:04.139Z,20.67
2023-04-17T09:15:30.962Z,21.80
2023-04-17T09:17:57.611Z,21.05
2023-04-17T09:20:24.498Z,21.67
2023-04-17T09:23:00.160Z,20.75
2023-04-17T09:25:28.442Z,24.42
2023-04-17T09:28:01.375Z,21.43
2023-04-17T09:30:28.004Z,18.65
2023-04-17T09:33:03.968Z,20.05
2023-04-17T09:35:30.958Z,21.02
2023-04-17T09:37:57.547Z,21.17
2023-04-17T09:40:25.870Z,25.63
2023-04-17T09:42:58.474Z,22.33
2023-04-17T09:45:26.803Z,24.08
2023-04-17T09:47:53.971Z,22.38
2023-04-17T09:50:21.307Z,19.65
2023-04-17T09:52:49.885Z,20.73
2023-04-17T09:55:18.531Z,17.35
2023-04-17T09:57:46.557Z,16.83
2023-04-17T10:00:15.804Z,16.55
2023-04-17T10:02:42.628Z,18.08
2023-04-17T10:05:10.898Z,17.03
2023-04-17T10:07:38.233Z,14.68
2023-04-17T10:10:05.736Z,16.33
2023-04-17T10:12:34.353Z,13.48
2023-04-17T10:15:02.647Z,15.65
2023-04-17T10:17:32.098Z,30.77
2023-04-17T10:20:32.060Z,24.95
2023-04-17T10:22:58.932Z,22.10
2023-04-17T10:25:26.840Z,15.30
2023-04-17T10:27:57.669Z,13.63
2023-04-17T10:30:24.959Z,16.23
2023-04-17T10:33:26.316Z,17.17
2023-04-17T10:35:53.748Z,15.02
2023-04-17T10:38:34.159Z,12.98
2023-04-17T10:41:02.042Z,12.73
2023-04-17T10:43:28.595Z,10.80
2023-04-17T10:45:57.781Z,12.63
2023-04-17T10:48:30.537Z,13.07
2023-04-17T10:50:57.349Z,9.68
2023-04-17T10:53:41.202Z,8.82
2023-04-17T10:56:08.697Z,12.10
2023-04-17T10:58:38.790Z,12.27
2023-04-17T11:01:10.235Z,12.63
2023-04-17T11:03:38.774Z,13.38
2023-04-17T11:06:07.148Z,10.40
2023-04-17T11:08:33.919Z,12.83
2023-04-17T11:11:00.499Z,11.10
2023-04-17T11:13:32.200Z,11.75
2023-04-17T11:15:58.833Z,9.88
2023-04-17T11:18:25.522Z,10.68
2023-04-17T11:20:53.985Z,11.00
2023-04-17T11:23:20.743Z,10.95
2023-04-17T11:25:47.720Z,8.20
2023-04-17T11:28:14.374Z,9.32
2023-04-17T11:30:41.046Z,8.57
2023-04-17T11:33:09.012Z,9.47
2023-04-17T11:35:37.816Z,8.35
2023-04-17T11:38:11.233Z,11.30
2023-04-17T11:40:42.631Z,9.18
2023-04-17T11:43:09.426Z,7.85
2023-04-17T11:45:36.919Z,8.40
2023-04-17T11:48:04.131Z,8.15
2023-04-17T11:50:31.893Z,8.43
2023-04-17T11:53:00.255Z,9.02
2023-04-17T11:55:28.658Z,8.05
2023-04-17T11:57:55.678Z,10.60
2023-04-17T12:00:23.262Z,9.15
2023-04-17T12:02:50.228Z,9.82
2023-04-17T12:05:17.177Z,12.95
2023-04-17T12:07:44.061Z,8.27
2023-04-17T12:10:10.961Z,9.83
2023-04-17T12:12:38.946Z,12.05
2023-04-17T12:15:06.675Z,10.85
2023-04-17T12:17:34.303Z,10.27
2023-04-17T12:20:00.966Z,6.72
2023-04-17T12:22:27.615Z,6.73
2023-04-17T12:24:54.320Z,8.75
2023-04-17T12:27:20.889Z,10.25
2023-04-17T12:29:48.820Z,7.93
2023-04-17T12:32:15.477Z,7.93
2023-04-17T12:34:42.070Z,7.93
2023-04-17T12:37:08.619Z,6.13
2023-04-17T12:39:35.222Z,13.90
2023-04-17T12:42:01.895Z,7.57
2023-04-17T12:44:28.516Z,10.23
2023-04-17T12:46:56.487Z,11.10
2023-04-17T12:49:23.143Z,10.35
2023-04-17T12:51:49.702Z,6.50
2023-04-17T12:54:16.490Z,7.03
2023-04-17T12:56:43.241Z,6.70
2023-04-17T12:59:09.865Z,7.60
2023-04-17T13:01:36.743Z,8.32
2023-04-17T13:04:05.216Z,7.05
2023-04-17T13:06:32.025Z,8.18
2023-04-17T13:08:58.637Z,7.40
2023-04-17T13:11:25.203Z,6.10
2023-04-17T13:13:51.796Z,7.18
2023-04-17T13:16:18.530Z,8.48
2023-04-17T13:18:45.151Z,8.10
2023-04-17T13:21:13.209Z,8.68
2023-04-17T13:23:39.790Z,6.90
2023-04-17T13:26:06.370Z,5.82
2023-04-17T13:28:33.055Z,9.23
2023-04-17T13:30:59.680Z,5.75
2023-04-17T13:33:26.331Z,7.22
2023-04-17T13:35:53.183Z,7.43
2023-04-17T13:38:21.214Z,7.18
2023-04-17T13:40:47.781Z,8.52
2023-04-17T13:43:14.353Z,8.07
2023-04-17T13:45:41.094Z,7.97
2023-04-17T13:48:07.988Z,6.87
2023-04-17T13:50:34.736Z,12.57
2023-04-17T13:53:01.412Z,8.57
2023-04-17T13:55:29.442Z,10.40
2023-04-17T13:57:56.069Z,13.13
2023-04-17T14:00:22.799Z,6.60
2023-04-17T14:02:49.555Z,7.43
2023-04-17T14:05:16.583Z,8.30
2023-04-17T14:07:44.281Z,11.52
2023-04-17T14:10:11.159Z,7.38
2023-04-17T14:12:39.198Z,6.63
2023-04-17T14:15:07.275Z,6.47
2023-04-17T14:17:34.215Z,11.73
2023-04-17T14:20:00.847Z,10.35
2023-04-17T14:22:27.458Z,7.70
2023-04-17T14:24:54.616Z,10.33
2023-04-17T14:27:21.260Z,10.23
2023-04-17T14:29:49.192Z,8.55
2023-04-17T14:32:15.757Z,11.07
2023-04-17T14:34:42.586Z,7.47
2023-04-17T14:37:09.266Z,7.50
2023-04-17T14:39:35.811Z,8.10
2023-04-17T14:42:02.602Z,8.48
2023-04-17T14:44:29.391Z,10.65
2023-04-17T14:46:57.462Z,8.43
2023-04-17T14:49:24.177Z,7.30
2023-04-17T14:51:51.006Z,9.48
2023-04-17T14:54:17.605Z,11.50
2023-04-17T14:56:44.302Z,8.30
2023-04-17T14:59:11.228Z,12.48
2023-04-17T15:01:38.132Z,9.97
2023-04-17T15:04:06.326Z,12.25
2023-04-17T15:06:33.176Z,9.18
2023-04-17T15:08:59.786Z,7.55
2023-04-17T15:11:26.336Z,11.73
2023-04-17T15:13:52.941Z,12.40
2023-04-17T15:16:19.602Z,8.13
2023-04-17T15:18:46.211Z,8.40
2023-04-17T15:21:15.164Z,8.63
2023-04-17T15:23:41.812Z,8.00
2023-04-17T15:26:08.870Z,8.80
2023-04-17T15:28:36.072Z,13.43
2023-04-17T15:31:02.766Z,7.88
2023-04-17T15:33:29.390Z,6.43
2023-04-17T15:35:57.003Z,9.27
2023-04-17T15:38:25.277Z,9.60
2023-04-17T15:40:52.126Z,7.95
2023-04-17T15:43:18.969Z,13.55
2023-04-17T15:45:47.944Z,12.27
2023-04-17T15:48:14.652Z,7.78
2023-04-17T15:50:41.421Z,9.50
2023-04-17T15:53:08.984Z,14.93
2023-04-17T15:55:37.196Z,12.20
2023-04-17T15:58:03.852Z,8.63
2023-04-17T16:00:30.786Z,9.85
2023-04-17T16:02:57.507Z,7.93
2023-04-17T16:05:24.257Z,8.10
2023-04-17T16:07:50.837Z,10.35
2023-04-17T16:10:17.398Z,10.10
2023-04-17T16:12:46.148Z,8.45
2023-04-17T16:15:14.821Z,9.90
2023-04-17T16:17:41.455Z,11.95
2023-04-17T16:20:09.399Z,7.30
2023-04-17T16:22:35.959Z,9.73
2023-04-17T16:25:02.727Z,8.50
2023-04-17T16:27:32.087Z,8.90
2023-04-17T16:30:00.230Z,8.00
2023-04-17T16:32:27.494Z,8.07
2023-04-17T16:34:54.462Z,7.30
2023-04-17T16:37:21.124Z,8.88
2023-04-17T16:39:47.739Z,10.90
2023-04-17T16:42:14.382Z,7.50
2023-04-17T16:44:41.115Z,8.80
2023-04-17T16:47:13.784Z,6.95
2023-04-17T16:49:41.226Z,11.05
2023-04-17T16:52:07.841Z,8.87
2023-04-17T16:54:34.463Z,7.00
2023-04-17T16:57:01.698Z,10.65
2023-04-17T16:59:28.320Z,7.32
2023-04-17T17:01:54.943Z,8.00
2023-04-17T17:04:23.111Z,5.83
2023-04-17T17:06:49.710Z,10.00
2023-04-17T17:09:16.295Z,9.20
2023-04-17T17:11:42.873Z,8.13
2023-04-17T17:14:09.576Z,8.18
2023-04-17T17:16:36.238Z,7.77
2023-04-17T17:19:02.941Z,6.55
2023-04-17T17:21:31.173Z,7.28
2023-04-17T17:23:57.828Z,8.63
2023-04-17T17:26:24.532Z,8.18
2023-04-17T17:28:51.523Z,8.37
2023-04-17T17:31:18.379Z,7.60
2023-04-17T17:33:45.461Z,7.00
2023-04-17T17:36:12.116Z,8.93
2023-04-17T17:38:40.058Z,6.60
2023-04-17T17:41:06.686Z,9.13
2023-04-17T17:43:33.265Z,7.35
2023-04-17T17:45:59.871Z,6.72
2023-04-17T17:48:26.452Z,6.50
2023-04-17T17:50:53.597Z,8.18
2023-04-17T17:53:23.468Z,7.43
2023-04-17T17:55:55.596Z,8.57
2023-04-17T17:58:22.851Z,10.90
2023-04-17T18:00:49.500Z,9.65
2023-04-17T18:03:16.277Z,9.45
2023-04-17T18:05:43.160Z,8.77
2023-04-17T18:08:09.802Z,8.93
2023-04-17T18:10:36.453Z,8.52
2023-04-17T18:13:04.527Z,7.20
2023-04-17T18:15:31.117Z,12.60
2023-04-17T18:17:57.702Z,6.47
2023-04-17T18:20:24.428Z,8.98
2023-04-17T18:22:51.022Z,10.48
2023-04-17T18:25:17.820Z,10.98
2023-04-17T18:27:44.626Z,10.48
2023-04-17T18:30:13.824Z,12.00
2023-04-17T18:32:40.429Z,10.18
2023-04-17T18:35:07.748Z,11.27
2023-04-17T18:37:34.455Z,8.65
2023-04-17T18:40:01.194Z,11.40
2023-04-17T18:42:27.767Z,10.17
2023-04-17T18:44:54.429Z,8.30
2023-04-17T18:47:22.402Z,9.18
2023-04-17T18:49:51.905Z,10.55
2023-04-17T18:52:18.581Z,11.70
2023-04-17T18:54:45.160Z,9.30
2023-04-17T18:57:12.013Z,8.73
2023-04-17T18:59:38.565Z,10.02
2023-04-17T19:02:05.393Z,12.98
2023-04-17T19:04:33.433Z,9.32
2023-04-17T19:07:00.012Z,8.00
2023-04-17T19:09:26.610Z,10.73
2023-04-17T19:11:53.327Z,9.20
2023-04-17T19:14:19.969Z,7.85
2023-04-17T19:16:47.376Z,9.48
2023-04-17T19:19:14.316Z,11.97
2023-04-17T19:21:42.454Z,12.25
2023-04-17T19:24:09.214Z,7.72
2023-04-17T19:26:35.843Z,9.82
2023-04-17T19:29:02.456Z,9.38
2023-04-17T19:31:29.261Z,11.13
2023-04-17T19:33:56.093Z,10.50
2023-04-17T19:36:22.965Z,11.52
2023-04-17T19:38:53.589Z,10.65
2023-04-17T19:41:20.283Z,10.43
2023-04-17T19:43:48.127Z,9.97
2023-04-17T19:46:15.051Z,12.80
2023-04-17T19:48:41.929Z,13.05
2023-04-17T19:51:08.685Z,11.32
2023-04-17T19:53:36.767Z,11.98
2023-04-17T19:56:08.337Z,12.00
2023-04-17T19:58:35.543Z,12.85
2023-04-17T20:01:02.616Z,11.45
2023-04-17T20:03:30.547Z,12.38
2023-04-17T20:05:58.353Z,11.95
2023-04-17T20:08:25.040Z,10.17
2023-04-17T20:10:51.860Z,8.73
2023-04-17T20:13:20.165Z,12.55
2023-04-17T20:15:46.960Z,15.40
2023-04-17T20:18:13.591Z,11.43
2023-04-17T20:20:40.183Z,10.40
2023-04-17T20:23:06.871Z,13.35
2023-04-17T20:25:33.459Z,12.45
2023-04-17T20:28:00.330Z,12.68
2023-04-17T20:30:28.589Z,12.50
2023-04-17T20:32:55.354Z,15.50
2023-04-17T20:35:22.178Z,13.23
2023-04-17T20:37:48.818Z,11.35
2023-04-17T20:40:15.453Z,11.50
2023-04-17T20:42:42.729Z,11.88
2023-04-17T20:45:11.104Z,12.67
2023-04-17T20:47:49.262Z,15.75
2023-04-17T20:50:22.422Z,13.52
2023-04-17T20:52:49.184Z,9.10
2023-04-17T20:55:15.811Z,10.40
2023-04-17T20:57:42.345Z,10.97
2023-04-17T21:00:10.104Z,10.07
2023-04-17T21:02:36.753Z,12.05
2023-04-17T21:05:06.176Z,9.82
2023-04-17T21:07:32.741Z,11.50
2023-04-17T21:09:59.372Z,10.70
2023-04-17T21:12:25.955Z,11.38
2023-04-17T21:14:52.571Z,11.77
2023-04-17T21:17:19.252Z,10.98
2023-04-17T21:19:45.864Z,12.13
2023-04-17T21:22:13.805Z,10.30
2023-04-17T21:24:40.395Z,11.32
2023-04-17T21:27:07.054Z,11.93
2023-04-17T21:29:33.637Z,12.10
2023-04-17T21:32:00.404Z,12.93
2023-04-17T21:34:27.064Z,9.90
2023-04-17T21:36:54.037Z,13.15
2023-04-17T21:39:22.069Z,12.93
2023-04-17T21:41:48.637Z,9.00
2023-04-17T21:44:15.669Z,10.40
2023-04-17T21:46:44.283Z,11.57
2023-04-17T21:49:10.931Z,11.60
2023-04-17T21:51:37.474Z,13.43
2023-04-17T21:54:04.091Z,10.75
2023-04-17T21:56:32.075Z,12.38
2023-04-17T21:58:58.643Z,9.57
2023-04-17T22:01:25.326Z,11.98
2023-04-17T22:03:51.937Z,13.02
2023-04-17T22:06:18.719Z,9.70
2023-04-17T22:08:45.584Z,13.43
2023-04-17T22:11:12.281Z,13.43
2023-04-17T22:13:40.188Z,10.45
2023-04-17T22:16:06.989Z,9.57
2023-04-17T22:18:33.553Z,10.35
2023-04-17T22:21:00.127Z,12.90
2023-04-17T22:23:26.716Z,8.57
2023-04-17T22:25:53.196Z,9.05
2023-04-17T22:28:19.765Z,8.52
2023-04-17T22:30:50.968Z,10.88
2023-04-17T22:33:17.623Z,12.18
2023-04-17T22:35:44.188Z,8.07
2023-04-17T22:38:10.826Z,12.00
2023-04-17T22:40:37.487Z,12.23
2023-04-17T22:43:04.740Z,8.50
2023-04-17T22:45:32.257Z,11.38
2023-04-17T22:48:00.232Z,10.03
2023-04-17T22:50:26.933Z,11.25
2023-04-17T22:52:53.645Z,11.65
2023-04-17T22:55:20.286Z,13.00
2023-04-17T22:57:46.888Z,9.35
2023-04-17T23:00:14.434Z,11.50
2023-04-17T23:02:41.242Z,9.32
2023-04-17T23:05:09.732Z,9.90
2023-04-17T23:07:36.502Z,14.35
2023-04-17T23:10:03.456Z,9.38
2023-04-17T23:12:31.761Z,8.20
2023-04-17T23:14:58.315Z,7.75
2023-04-17T23:17:24.890Z,8.30
2023-04-17T23:19:51.615Z,9.73
2023-04-17T23:22:19.584Z,9.55
2023-04-17T23:24:46.184Z,8.60
2023-04-17T23:27:12.735Z,9.27
2023-04-17T23:29:39.319Z,8.48
2023-04-17T23:32:06.635Z,9.27
2023-04-17T23:34:33.225Z,8.35
2023-04-17T23:36:59.798Z,9.20
2023-04-17T23:39:28.049Z,10.70
2023-04-17T23:41:54.622Z,10.20
2023-04-17T23:44:21.361Z,10.02
2023-04-17T23:46:47.973Z,7.97
2023-04-17T23:49:14.808Z,7.87
2023-04-17T23:51:41.340Z,7.28
2023-04-17T23:54:08.001Z,10.98
2023-04-17T23:56:35.800Z,6.15
2023-04-17T23:59:02.371Z,9.95
